Deschaillons-Sur-Saint-Laurent, Canada
Current Conditions -  °F | °C
As of 10:14 AM on Monday 22 Dec 2014 (Local Time) from CYRQ Reporting Station
Overcast Overcast  
Wind Chill: -14°   Ceiling: 1000
Heat Index: -9°   Visibility: 9mi
Dew Point: -11°   Wind: 7mph
Humidity: 86%   Direction: 20°NNE
Pressure: 30.45"   Gusts: NA
Location:  46.55°N, 72.12°W
Report Text: CYRQ 221514Z AUTO 02006KT 9SM OVC010 M09/M11 A3045 RMK SLP315
Loading
Personal Weather Stations






























Interactive Weather Map New forecast layout! Learn more

10-Day Weather Forecast

Advertisements
Track Severe Weather on mobile